createdAt,value
2019-05-20T00:01:07.479Z,14.00
2019-05-20T00:03:33.886Z,14.00
2019-05-20T00:06:00.306Z,14.00
2019-05-20T00:08:26.578Z,13.90
2019-05-20T00:10:52.984Z,13.80
2019-05-20T00:13:19.361Z,13.80
2019-05-20T00:15:45.726Z,13.80
2019-05-20T00:18:12.115Z,13.70
2019-05-20T00:20:39.623Z,13.70
2019-05-20T00:23:06.013Z,13.70
2019-05-20T00:25:32.353Z,13.70
2019-05-20T00:27:58.728Z,13.70
2019-05-20T00:30:25.156Z,13.70
2019-05-20T00:32:51.559Z,13.60
2019-05-20T00:35:17.981Z,13.60
2019-05-20T00:37:44.446Z,13.60
2019-05-20T00:40:11.191Z,13.60
2019-05-20T00:42:37.675Z,13.60
2019-05-20T00:45:05.985Z,13.50
2019-05-20T00:47:32.377Z,13.50
2019-05-20T00:49:58.753Z,13.50
2019-05-20T00:52:25.128Z,13.50
2019-05-20T00:54:51.492Z,13.50
2019-05-20T00:57:17.920Z,13.50
2019-05-20T00:59:44.259Z,13.40
2019-05-20T01:02:10.699Z,13.30
2019-05-20T01:04:37.391Z,13.30
2019-05-20T01:07:03.708Z,13.30
2019-05-20T01:09:30.157Z,13.40
2019-05-20T01:11:56.497Z,13.30
2019-05-20T01:14:22.948Z,13.30
2019-05-20T01:16:49.265Z,13.40
2019-05-20T01:19:15.620Z,13.40
2019-05-20T01:21:41.967Z,13.40
2019-05-20T01:24:08.349Z,13.40
2019-05-20T01:26:34.703Z,13.30
2019-05-20T01:29:01.040Z,13.40
2019-05-20T01:31:27.378Z,13.40
2019-05-20T01:33:53.707Z,13.40
2019-05-20T01:36:20.044Z,13.40
2019-05-20T01:38:46.405Z,13.30
2019-05-20T01:41:13.858Z,13.20
2019-05-20T01:43:40.244Z,13.20
2019-05-20T01:46:06.589Z,13.20
2019-05-20T01:48:32.947Z,13.20
2019-05-20T01:50:59.373Z,13.20
2019-05-20T01:53:25.731Z,13.20
2019-05-20T01:55:52.109Z,13.20
2019-05-20T01:58:18.443Z,13.20
2019-05-20T02:00:44.827Z,13.10
2019-05-20T02:03:11.157Z,13.10
2019-05-20T02:05:37.519Z,13.20
2019-05-20T02:08:03.888Z,13.10
2019-05-20T02:10:30.265Z,13.10
2019-05-20T02:12:56.664Z,13.10
2019-05-20T02:15:36.992Z,13.00
2019-05-20T02:18:03.322Z,13.00
2019-05-20T02:20:29.796Z,13.00
2019-05-20T02:23:14.380Z,13.00
2019-05-20T02:25:46.596Z,13.00
2019-05-20T02:28:11.128Z,12.90
2019-05-20T02:30:37.502Z,12.90
2019-05-20T02:33:03.887Z,12.90
2019-05-20T02:35:30.270Z,12.90
2019-05-20T02:37:56.638Z,12.90
2019-05-20T02:40:22.975Z,12.90
2019-05-20T02:42:49.413Z,12.90
2019-05-20T02:45:15.972Z,12.80
2019-05-20T02:47:42.364Z,12.80
2019-05-20T02:50:08.985Z,12.70
2019-05-20T02:52:35.409Z,12.70
2019-05-20T02:55:02.401Z,12.60
2019-05-20T02:57:28.852Z,12.70
2019-05-20T02:59:55.218Z,12.70
2019-05-20T03:02:21.632Z,12.70
2019-05-20T03:04:48.033Z,12.80
2019-05-20T03:07:14.384Z,12.80
2019-05-20T03:09:40.856Z,12.80
2019-05-20T03:12:07.194Z,12.70
2019-05-20T03:14:33.583Z,12.70
2019-05-20T03:16:59.913Z,12.80
2019-05-20T03:19:26.313Z,12.70
2019-05-20T03:21:52.610Z,12.70
2019-05-20T03:24:19.015Z,12.70
2019-05-20T03:26:45.356Z,12.80
2019-05-20T03:29:12.122Z,12.80
2019-05-20T03:31:38.482Z,12.90
2019-05-20T03:34:04.905Z,12.90
2019-05-20T03:36:31.278Z,12.80
2019-05-20T03:38:57.591Z,12.80
2019-05-20T03:41:23.995Z,12.90
2019-05-20T03:43:50.320Z,12.90
2019-05-20T03:46:16.713Z,13.00
2019-05-20T03:48:43.038Z,13.10
2019-05-20T03:51:09.467Z,13.10
2019-05-20T03:53:35.785Z,13.10
2019-05-20T03:56:02.156Z,13.10
2019-05-20T03:58:28.458Z,13.20
2019-05-20T04:00:55.947Z,13.20
2019-05-20T04:03:22.305Z,13.30
2019-05-20T04:05:48.701Z,13.30
2019-05-20T04:08:15.060Z,13.30
2019-05-20T04:10:41.456Z,13.40
2019-05-20T04:13:07.763Z,13.40
2019-05-20T04:15:34.179Z,13.50
2019-05-20T04:18:00.746Z,13.60
2019-05-20T04:20:27.158Z,13.70
2019-05-20T04:22:53.523Z,13.70
2019-05-20T04:25:19.941Z,13.80
2019-05-20T04:27:46.355Z,13.90
2019-05-20T04:30:13.970Z,14.00
2019-05-20T04:32:40.383Z,14.10
2019-05-20T04:35:21.245Z,14.20
2019-05-20T04:37:36.073Z,14.30
2019-05-20T04:40:04.509Z,14.40
2019-05-20T04:42:30.850Z,14.60
2019-05-20T04:44:57.265Z,14.80
2019-05-20T04:47:23.623Z,14.90
2019-05-20T04:49:50.048Z,15.10
2019-05-20T04:52:16.379Z,15.30
2019-05-20T04:54:42.814Z,15.50
2019-05-20T04:57:09.159Z,15.60
2019-05-20T04:59:35.615Z,15.90
2019-05-20T05:02:02.069Z,16.10
2019-05-20T05:04:28.398Z,16.40
2019-05-20T05:06:54.793Z,16.50
2019-05-20T05:09:21.162Z,16.70
2019-05-20T05:11:47.578Z,16.80
2019-05-20T05:14:13.935Z,17.00
2019-05-20T05:16:40.311Z,17.20
2019-05-20T05:19:06.719Z,17.40
2019-05-20T05:21:33.091Z,17.50
2019-05-20T05:23:59.727Z,17.80
2019-05-20T05:26:26.188Z,17.90
2019-05-20T05:28:52.591Z,18.10
2019-05-20T05:31:18.923Z,18.20
2019-05-20T05:33:45.323Z,18.20
2019-05-20T05:36:11.689Z,18.30
2019-05-20T05:38:38.271Z,18.50
2019-05-20T05:41:04.640Z,18.60
2019-05-20T05:43:31.090Z,18.70
2019-05-20T05:45:57.443Z,18.80
2019-05-20T05:48:23.836Z,18.90
2019-05-20T05:50:50.228Z,19.00
2019-05-20T05:53:16.612Z,19.10
2019-05-20T05:55:42.974Z,19.30
2019-05-20T05:58:09.342Z,19.50
2019-05-20T06:00:35.690Z,19.60
2019-05-20T06:03:02.093Z,19.60
2019-05-20T06:05:31.568Z,19.60
2019-05-20T06:07:56.630Z,19.50
2019-05-20T06:10:23.183Z,19.70
2019-05-20T06:12:49.743Z,19.80
2019-05-20T06:15:18.256Z,19.90
2019-05-20T06:17:44.629Z,19.90
2019-05-20T06:20:12.973Z,19.80
2019-05-20T06:22:39.342Z,19.80
2019-05-20T06:25:06.423Z,19.80
2019-05-20T06:27:32.741Z,20.00
2019-05-20T06:29:59.150Z,20.00
2019-05-20T06:32:25.635Z,20.20
2019-05-20T06:34:52.051Z,20.30
2019-05-20T06:37:20.738Z,20.40
2019-05-20T06:39:47.122Z,20.40
2019-05-20T06:42:13.459Z,20.30
2019-05-20T06:44:52.390Z,20.30
2019-05-20T06:47:07.939Z,20.30
2019-05-20T06:49:34.290Z,20.20
2019-05-20T06:52:00.816Z,20.60
2019-05-20T06:54:27.162Z,20.80
2019-05-20T06:56:53.572Z,21.30
2019-05-20T06:59:19.939Z,21.50
2019-05-20T07:01:46.329Z,21.50
2019-05-20T07:04:12.814Z,21.40
2019-05-20T07:06:46.446Z,21.30
2019-05-20T07:09:07.390Z,21.20
2019-05-20T07:11:33.723Z,22.00
2019-05-20T07:14:00.520Z,23.00
2019-05-20T07:16:26.843Z,24.00
2019-05-20T07:18:54.132Z,23.90
2019-05-20T07:21:21.478Z,23.90
2019-05-20T07:23:47.888Z,24.10
2019-05-20T07:26:14.271Z,24.10
2019-05-20T07:28:40.726Z,23.40
2019-05-20T07:31:07.053Z,23.40
2019-05-20T07:33:33.433Z,23.30
2019-05-20T07:35:59.785Z,23.80
2019-05-20T07:38:27.234Z,24.00
2019-05-20T07:40:53.563Z,24.00
2019-05-20T07:43:19.985Z,24.50
2019-05-20T07:45:46.321Z,24.80
2019-05-20T07:48:13.385Z,25.20
2019-05-20T07:50:41.310Z,25.80
2019-05-20T07:53:09.703Z,26.00
2019-05-20T07:55:40.095Z,26.40
2019-05-20T07:58:07.346Z,26.90
2019-05-20T08:00:34.615Z,27.30
2019-05-20T08:03:01.055Z,27.70
2019-05-20T08:05:27.394Z,27.70
2019-05-20T08:07:53.828Z,27.80
2019-05-20T08:10:20.717Z,27.80
2019-05-20T08:12:48.289Z,27.70
2019-05-20T08:15:15.521Z,28.00
2019-05-20T08:17:41.892Z,28.50
2019-05-20T08:20:08.891Z,27.80
2019-05-20T08:22:35.322Z,27.00
2019-05-20T08:25:04.912Z,27.10
2019-05-20T08:27:31.269Z,27.40
2019-05-20T08:29:57.668Z,27.80
2019-05-20T08:32:24.108Z,27.70
2019-05-20T08:34:50.455Z,28.10
2019-05-20T08:37:16.884Z,29.00
2019-05-20T08:39:43.248Z,29.30
2019-05-20T08:42:09.662Z,28.70
2019-05-20T08:44:36.128Z,28.20
2019-05-20T08:47:02.736Z,28.30
2019-05-20T08:49:29.190Z,28.20
2019-05-20T08:51:55.540Z,28.40
2019-05-20T08:54:21.952Z,28.60
2019-05-20T08:56:49.358Z,28.70
2019-05-20T08:59:16.035Z,29.20
2019-05-20T09:01:42.521Z,29.30
2019-05-20T09:04:08.954Z,29.50
2019-05-20T09:06:35.453Z,30.20
2019-05-20T09:09:02.419Z,29.80
2019-05-20T09:11:29.352Z,30.40
2019-05-20T09:13:55.748Z,29.90
2019-05-20T09:16:22.138Z,29.40
2019-05-20T09:18:48.463Z,30.00
2019-05-20T09:21:15.230Z,29.80
2019-05-20T09:23:41.798Z,29.40
2019-05-20T09:26:08.325Z,29.30
2019-05-20T09:28:35.060Z,29.70
2019-05-20T09:31:01.713Z,30.00
2019-05-20T09:33:29.310Z,29.80
2019-05-20T09:35:55.738Z,29.70
2019-05-20T09:38:22.172Z,29.80
2019-05-20T09:40:48.947Z,30.40
2019-05-20T09:43:16.348Z,30.50
2019-05-20T09:45:42.732Z,30.50
2019-05-20T09:48:09.812Z,30.60
2019-05-20T09:50:36.397Z,30.70
2019-05-20T09:53:06.795Z,30.50
2019-05-20T09:55:31.236Z,30.70
2019-05-20T09:57:57.612Z,30.70
2019-05-20T10:00:24.337Z,30.20
2019-05-20T10:02:50.738Z,29.70
2019-05-20T10:05:17.063Z,29.30
2019-05-20T10:07:43.495Z,28.90
2019-05-20T10:10:10.391Z,28.30
2019-05-20T10:12:45.875Z,28.10
2019-05-20T10:15:05.937Z,28.80
2019-05-20T10:17:32.339Z,28.90
2019-05-20T10:19:58.789Z,29.20
2019-05-20T10:22:25.189Z,29.50
2019-05-20T10:24:51.547Z,29.50
2019-05-20T10:27:17.983Z,29.20
2019-05-20T10:29:45.456Z,28.60
2019-05-20T10:32:11.887Z,28.40
2019-05-20T10:34:38.324Z,28.50
2019-05-20T10:37:04.694Z,28.80
2019-05-20T10:39:31.017Z,29.40
2019-05-20T10:41:57.445Z,29.40
2019-05-20T10:44:23.807Z,29.50
2019-05-20T10:46:50.241Z,29.30
2019-05-20T10:49:16.584Z,28.80
2019-05-20T10:51:42.979Z,28.20
2019-05-20T10:54:09.394Z,27.90
2019-05-20T10:56:35.805Z,27.60
2019-05-20T10:59:03.273Z,28.00
2019-05-20T11:01:29.722Z,29.20
2019-05-20T11:03:56.144Z,30.00
2019-05-20T11:06:22.510Z,30.10
2019-05-20T11:08:48.988Z,29.70
2019-05-20T11:11:15.379Z,28.90
2019-05-20T11:13:42.834Z,28.70
2019-05-20T11:16:09.219Z,29.00
2019-05-20T11:18:35.585Z,28.60
2019-05-20T11:21:01.978Z,28.80
2019-05-20T11:23:28.454Z,29.50
2019-05-20T11:25:54.787Z,29.70
2019-05-20T11:28:22.267Z,29.90
2019-05-20T11:30:48.639Z,29.90
2019-05-20T11:33:15.139Z,29.30
2019-05-20T11:35:41.481Z,29.10
2019-05-20T11:38:07.944Z,29.10
2019-05-20T11:40:35.322Z,29.80
2019-05-20T11:43:01.809Z,30.20
2019-05-20T11:45:28.148Z,30.10
2019-05-20T11:47:54.593Z,29.50
2019-05-20T11:50:21.073Z,28.90
2019-05-20T11:52:47.444Z,28.30
2019-05-20T11:55:13.932Z,27.70
2019-05-20T11:57:40.349Z,27.30
2019-05-20T12:00:07.196Z,26.80
2019-05-20T12:02:33.604Z,26.40
2019-05-20T12:04:59.917Z,25.80
2019-05-20T12:07:26.412Z,25.40
2019-05-20T12:09:52.829Z,25.10
2019-05-20T12:12:19.349Z,25.00
2019-05-20T12:14:45.779Z,24.90
2019-05-20T12:17:14.774Z,25.00
2019-05-20T12:19:41.153Z,25.90
2019-05-20T12:22:07.642Z,27.20
2019-05-20T12:24:34.057Z,28.90
2019-05-20T12:27:00.525Z,29.50
2019-05-20T12:29:26.947Z,30.10
2019-05-20T12:31:53.302Z,29.80
2019-05-20T12:34:19.697Z,29.20
2019-05-20T12:36:46.021Z,29.20
2019-05-20T12:39:12.465Z,29.70
2019-05-20T12:41:38.878Z,30.30
2019-05-20T12:44:11.952Z,30.80
2019-05-20T12:46:36.296Z,31.20
2019-05-20T12:49:02.975Z,31.00
2019-05-20T12:51:29.408Z,31.30
2019-05-20T12:53:55.842Z,31.50
2019-05-20T12:56:22.319Z,32.30
2019-05-20T12:58:50.590Z,32.40
2019-05-20T13:01:18.952Z,32.10
2019-05-20T13:03:48.891Z,32.30
2019-05-20T13:06:16.523Z,32.70
2019-05-20T13:08:45.617Z,33.10
2019-05-20T13:11:15.944Z,33.60
2019-05-20T13:13:47.946Z,33.80
2019-05-20T13:16:15.258Z,32.90
2019-05-20T13:18:55.415Z,31.40
2019-05-20T13:21:22.995Z,31.10
2019-05-20T13:23:51.306Z,31.10
2019-05-20T13:26:19.616Z,31.30
2019-05-20T13:28:48.980Z,30.90
2019-05-20T13:31:16.350Z,30.70
2019-05-20T13:33:45.600Z,31.00
2019-05-20T13:36:13.918Z,31.00
2019-05-20T13:38:46.252Z,31.10
2019-05-20T13:41:14.594Z,31.50
2019-05-20T13:43:51.863Z,31.60
2019-05-20T13:46:31.755Z,32.00
2019-05-20T13:57:58.994Z,32.50
2019-05-20T14:03:13.559Z,32.70
2019-05-20T14:05:45.967Z,32.30
2019-05-20T14:08:22.050Z,32.30
2019-05-20T14:11:03.606Z,32.90
2019-05-20T14:13:40.020Z,32.60
2019-05-20T14:16:20.384Z,32.80
2019-05-20T14:19:10.211Z,32.50
2019-05-20T14:21:37.302Z,31.30
2019-05-20T14:24:31.693Z,31.10
2019-05-20T14:27:03.306Z,30.30
2019-05-20T14:29:52.726Z,29.70
2019-05-20T14:35:37.629Z,28.60
2019-05-20T14:44:02.587Z,27.10
2019-05-20T14:49:46.442Z,26.50
2019-05-20T14:52:15.840Z,26.40
2019-05-20T14:56:14.816Z,26.30
2019-05-20T14:57:54.479Z,26.20
2019-05-20T15:00:03.175Z,26.30
2019-05-20T15:05:36.263Z,26.50
2019-05-20T15:13:02.921Z,26.20
2019-05-20T15:14:15.288Z,25.90
2019-05-20T15:19:57.902Z,25.10
2019-05-20T15:25:46.367Z,24.30
2019-05-20T15:28:17.643Z,24.00
2019-05-20T15:35:17.802Z,23.80
2019-05-20T15:36:47.955Z,23.80
2019-05-20T15:42:16.834Z,24.00
2019-05-20T15:45:07.697Z,24.00
2019-05-20T15:47:59.638Z,24.00
2019-05-20T15:50:30.057Z,24.00
2019-05-20T15:55:55.936Z,24.00
2019-05-20T16:04:18.277Z,23.90
2019-05-20T16:06:44.882Z,24.00
2019-05-20T16:09:16.131Z,24.10
2019-05-20T16:11:49.609Z,24.10
2019-05-20T16:19:57.229Z,24.00
2019-05-20T16:25:56.755Z,23.90
2019-05-20T16:28:33.348Z,23.80
2019-05-20T16:33:58.938Z,23.70
2019-05-20T16:43:34.913Z,23.70
2019-05-20T16:48:24.398Z,23.60
2019-05-20T16:56:47.542Z,23.30
2019-05-20T16:59:21.563Z,23.20
2019-05-20T17:01:57.058Z,23.10
2019-05-20T17:05:08.710Z,23.10
2019-05-20T17:07:41.662Z,23.10
2019-05-20T17:10:31.482Z,23.00
2019-05-20T17:13:13.199Z,23.00
2019-05-20T17:27:35.098Z,22.80
2019-05-20T17:34:08.457Z,22.70
2019-05-20T17:36:34.846Z,22.60
2019-05-20T17:39:01.408Z,22.50
2019-05-20T17:41:28.744Z,22.50
2019-05-20T17:43:55.245Z,22.50
2019-05-20T17:46:21.961Z,22.40
2019-05-20T17:48:48.360Z,22.30
2019-05-20T17:51:14.894Z,22.30
2019-05-20T17:53:41.371Z,22.30
2019-05-20T17:56:08.127Z,22.20
2019-05-20T17:58:37.297Z,22.20
2019-05-20T18:01:14.778Z,22.20
2019-05-20T18:03:31.377Z,22.10
2019-05-20T18:05:58.087Z,22.10
2019-05-20T18:08:26.400Z,22.00
2019-05-20T18:10:53.093Z,22.10
2019-05-20T18:13:20.288Z,22.00
2019-05-20T18:15:48.025Z,22.00
2019-05-20T18:18:14.548Z,21.90
2019-05-20T18:20:41.353Z,21.90
2019-05-20T18:23:07.852Z,21.80
2019-05-20T18:25:34.381Z,21.80
2019-05-20T18:28:00.845Z,21.80
2019-05-20T18:30:27.498Z,21.70
2019-05-20T18:32:54.078Z,21.50
2019-05-20T18:35:20.829Z,21.40
2019-05-20T18:37:47.397Z,21.30
2019-05-20T18:40:15.114Z,21.20
2019-05-20T18:42:41.670Z,21.00
2019-05-20T18:45:08.464Z,20.80
2019-05-20T18:47:34.888Z,20.60
2019-05-20T18:50:03.503Z,20.40
2019-05-20T18:52:30.114Z,20.30
2019-05-20T18:54:56.816Z,20.20
2019-05-20T18:57:23.502Z,20.10
2019-05-20T18:59:49.942Z,20.10
2019-05-20T19:02:16.537Z,20.10
2019-05-20T19:04:42.913Z,20.00
2019-05-20T19:07:09.509Z,20.00
2019-05-20T19:09:36.062Z,20.00
2019-05-20T19:12:02.655Z,20.00
2019-05-20T19:14:29.294Z,19.90
2019-05-20T19:16:56.779Z,19.90
2019-05-20T19:19:23.217Z,19.90
2019-05-20T19:21:49.867Z,19.90
2019-05-20T19:24:16.348Z,19.90
2019-05-20T19:26:42.769Z,19.80
2019-05-20T19:29:09.216Z,19.80
2019-05-20T19:31:35.686Z,19.70
2019-05-20T19:34:02.075Z,19.70
2019-05-20T19:36:28.756Z,19.60
2019-05-20T19:38:55.181Z,19.50
2019-05-20T19:41:22.667Z,19.60
2019-05-20T19:43:49.147Z,19.40
2019-05-20T19:46:16.653Z,19.30
2019-05-20T19:48:43.117Z,19.20
2019-05-20T19:51:09.475Z,19.20
2019-05-20T19:53:35.921Z,19.20
2019-05-20T19:56:02.330Z,19.10
2019-05-20T19:58:28.772Z,19.00
2019-05-20T20:00:56.841Z,19.00
2019-05-20T20:03:23.399Z,18.90
2019-05-20T20:05:49.843Z,18.90
2019-05-20T20:08:17.298Z,18.80
2019-05-20T20:10:43.722Z,18.80
2019-05-20T20:13:10.136Z,18.70
2019-05-20T20:15:36.552Z,18.60
2019-05-20T20:18:03.148Z,18.60
2019-05-20T20:20:29.630Z,18.50
2019-05-20T20:22:56.042Z,18.50
2019-05-20T20:25:22.642Z,18.50
2019-05-20T20:27:48.946Z,18.50
2019-05-20T20:30:15.583Z,18.40
2019-05-20T20:32:41.965Z,18.30
2019-05-20T20:35:08.925Z,18.30
2019-05-20T20:37:35.318Z,18.20
2019-05-20T20:40:01.929Z,18.20
2019-05-20T20:42:28.457Z,18.20
2019-05-20T20:44:54.820Z,18.20
2019-05-20T20:47:21.223Z,18.30
2019-05-20T20:49:47.604Z,18.30
2019-05-20T20:52:14.021Z,18.40
2019-05-20T20:54:40.413Z,18.50
2019-05-20T20:57:06.937Z,18.60
2019-05-20T20:59:33.306Z,18.50
2019-05-20T21:01:59.766Z,18.40
2019-05-20T21:04:26.189Z,18.40
2019-05-20T21:06:52.586Z,18.40
2019-05-20T21:09:19.068Z,18.40
2019-05-20T21:11:45.411Z,18.40
2019-05-20T21:14:11.937Z,18.30
2019-05-20T21:16:38.375Z,18.30
2019-05-20T21:19:04.865Z,18.40
2019-05-20T21:21:31.550Z,18.40
2019-05-20T21:23:58.081Z,18.40
2019-05-20T21:26:24.572Z,18.40
2019-05-20T21:28:51.043Z,18.40
2019-05-20T21:31:17.577Z,18.40
2019-05-20T21:33:44.093Z,18.40
2019-05-20T21:36:10.476Z,18.40
2019-05-20T21:38:36.940Z,18.30
2019-05-20T21:41:03.383Z,18.30
2019-05-20T21:43:29.810Z,18.20
2019-05-20T21:45:56.231Z,18.20
2019-05-20T21:48:22.641Z,18.10
2019-05-20T21:50:49.083Z,18.10
2019-05-20T21:53:15.546Z,18.10
2019-05-20T21:55:42.005Z,18.00
2019-05-20T21:58:08.361Z,17.90
2019-05-20T22:00:39.574Z,17.80
2019-05-20T22:03:06.099Z,17.80
2019-05-20T22:05:32.746Z,17.90
2019-05-20T22:07:59.025Z,17.80
2019-05-20T22:10:25.531Z,17.90
2019-05-20T22:12:51.883Z,17.90
2019-05-20T22:15:18.320Z,17.90
2019-05-20T22:17:44.712Z,17.90
2019-05-20T22:20:13.157Z,17.90
2019-05-20T22:22:41.529Z,17.90
2019-05-20T22:25:08.183Z,17.90
2019-05-20T22:27:34.584Z,17.90
2019-05-20T22:30:00.984Z,17.90
2019-05-20T22:32:27.447Z,17.90
2019-05-20T22:34:54.123Z,18.00
2019-05-20T22:37:20.538Z,18.00
2019-05-20T22:39:47.110Z,17.90
2019-05-20T22:42:13.509Z,17.90
2019-05-20T22:44:39.855Z,17.80
2019-05-20T22:47:06.323Z,17.70
2019-05-20T22:49:32.668Z,17.90
2019-05-20T22:51:59.230Z,17.80
2019-05-20T22:54:25.579Z,17.80
2019-05-20T22:56:51.968Z,17.80
2019-05-20T22:59:18.344Z,17.80
2019-05-20T23:01:44.809Z,17.70
2019-05-20T23:04:11.225Z,17.70
2019-05-20T23:06:37.659Z,17.70
2019-05-20T23:09:05.978Z,17.70
2019-05-20T23:11:32.439Z,17.70
2019-05-20T23:13:58.848Z,17.60
2019-05-20T23:16:25.257Z,17.70
2019-05-20T23:18:51.679Z,17.70
2019-05-20T23:21:18.122Z,17.70
2019-05-20T23:23:44.612Z,17.70
2019-05-20T23:26:11.015Z,17.70
2019-05-20T23:28:37.461Z,17.70
2019-05-20T23:31:04.372Z,17.70
2019-05-20T23:33:30.696Z,17.60
2019-05-20T23:35:57.119Z,17.60
2019-05-20T23:38:23.508Z,17.60
2019-05-20T23:40:49.858Z,17.60
2019-05-20T23:43:16.238Z,17.60
2019-05-20T23:45:42.844Z,17.50
2019-05-20T23:51:17.399Z,17.40
2019-05-20T23:53:43.721Z,17.40
2019-05-20T23:56:10.110Z,17.40
2019-05-20T23:58:36.413Z,17.30
